createdAt,value
2023-05-23T00:01:07.323Z,14.15
2023-05-23T00:03:34.857Z,14.01
2023-05-23T00:06:02.575Z,13.92
2023-05-23T00:08:29.249Z,13.93
2023-05-23T00:10:55.901Z,14.00
2023-05-23T00:13:22.998Z,13.98
2023-05-23T00:15:49.705Z,13.91
2023-05-23T00:18:16.703Z,13.91
2023-05-23T00:20:44.186Z,13.90
2023-05-23T00:23:18.826Z,13.86
2023-05-23T00:25:53.220Z,13.82
2023-05-23T00:28:20.829Z,13.79
2023-05-23T00:30:49.345Z,13.84
2023-05-23T00:33:17.729Z,13.92
2023-05-23T00:35:44.490Z,13.93
2023-05-23T00:38:11.734Z,13.88
2023-05-23T00:40:38.783Z,13.91
2023-05-23T00:43:05.932Z,13.94
2023-05-23T00:45:32.587Z,14.02
2023-05-23T00:48:00.372Z,14.08
2023-05-23T00:50:29.877Z,14.12
2023-05-23T00:52:59.734Z,14.13
2023-05-23T00:55:26.786Z,14.13
2023-05-23T00:57:57.475Z,14.12
2023-05-23T01:00:25.662Z,14.13
2023-05-23T01:02:53.650Z,14.17
2023-05-23T01:05:22.664Z,14.17
2023-05-23T01:07:51.159Z,14.17
2023-05-23T01:10:21.514Z,14.13
2023-05-23T01:13:12.247Z,14.03
2023-05-23T01:15:55.065Z,13.90
2023-05-23T01:18:27.028Z,13.92
2023-05-23T01:20:57.141Z,13.94
2023-05-23T01:23:52.466Z,14.00
2023-05-23T01:26:58.093Z,14.03
2023-05-23T01:29:28.517Z,13.99
2023-05-23T01:31:58.448Z,13.95
2023-05-23T01:34:25.345Z,13.92
2023-05-23T01:36:58.113Z,13.88
2023-05-23T01:39:24.781Z,13.86
2023-05-23T01:41:53.007Z,13.81
2023-05-23T01:44:21.479Z,13.75
2023-05-23T01:46:48.815Z,13.67
2023-05-23T01:49:17.069Z,13.59
2023-05-23T01:51:44.127Z,13.56
2023-05-23T01:54:10.954Z,13.53
2023-05-23T01:56:38.046Z,13.48
2023-05-23T01:59:04.850Z,13.50
2023-05-23T02:01:31.609Z,13.55
2023-05-23T02:03:58.540Z,13.60
2023-05-23T02:06:25.286Z,13.61
2023-05-23T02:08:52.039Z,13.65
2023-05-23T02:11:18.697Z,13.66
2023-05-23T02:13:45.717Z,13.67
2023-05-23T02:16:14.075Z,13.67
2023-05-23T02:18:40.862Z,13.66
2023-05-23T02:21:07.523Z,13.68
2023-05-23T02:23:34.189Z,13.70
2023-05-23T02:26:00.912Z,13.68
2023-05-23T02:28:27.699Z,13.69
2023-05-23T02:30:54.470Z,13.68
2023-05-23T02:33:21.821Z,13.67
2023-05-23T02:35:50.842Z,13.66
2023-05-23T02:38:17.935Z,13.65
2023-05-23T02:40:44.810Z,13.65
2023-05-23T02:43:11.456Z,13.64
2023-05-23T02:45:38.189Z,13.61
2023-05-23T02:48:05.003Z,13.60
2023-05-23T02:50:31.882Z,13.62
2023-05-23T02:52:58.521Z,13.60
2023-05-23T02:55:25.262Z,13.60
2023-05-23T02:57:52.459Z,13.58
2023-05-23T03:00:19.319Z,13.61
2023-05-23T03:02:46.148Z,13.62
2023-05-23T03:05:12.865Z,13.61
2023-05-23T03:07:39.524Z,13.62
2023-05-23T03:10:07.357Z,13.61
2023-05-23T03:12:34.183Z,13.57
2023-05-23T03:15:00.838Z,13.54
2023-05-23T03:17:27.545Z,13.48
2023-05-23T03:19:54.252Z,13.44
2023-05-23T03:22:20.949Z,13.48
2023-05-23T03:24:47.737Z,13.53
2023-05-23T03:27:14.739Z,13.57
2023-05-23T03:29:41.432Z,13.62
2023-05-23T03:32:08.370Z,13.65
2023-05-23T03:34:36.632Z,13.65
2023-05-23T03:37:04.258Z,13.66
2023-05-23T03:39:31.232Z,13.69
2023-05-23T03:41:57.885Z,13.70
2023-05-23T03:44:24.754Z,13.66
2023-05-23T03:46:51.483Z,13.67
2023-05-23T03:49:18.141Z,13.68
2023-05-23T03:51:44.854Z,13.68
2023-05-23T03:54:11.528Z,13.70
2023-05-23T03:56:38.214Z,13.72
2023-05-23T03:59:04.941Z,13.73
2023-05-23T04:01:31.600Z,13.75
2023-05-23T04:04:00.298Z,13.77
2023-05-23T04:06:30.114Z,13.80
2023-05-23T04:08:57.505Z,13.82
2023-05-23T04:11:24.147Z,13.88
2023-05-23T04:13:52.087Z,13.89
2023-05-23T04:16:18.980Z,13.93
2023-05-23T04:18:47.663Z,13.95
2023-05-23T04:21:14.439Z,13.99
2023-05-23T04:23:41.189Z,13.99
2023-05-23T04:26:07.881Z,14.01
2023-05-23T04:28:34.874Z,14.02
2023-05-23T04:31:03.324Z,14.05
2023-05-23T04:33:30.770Z,14.11
2023-05-23T04:35:57.507Z,14.14
2023-05-23T04:38:25.250Z,14.16
2023-05-23T04:40:55.244Z,14.25
2023-05-23T04:43:22.080Z,14.35
2023-05-23T04:45:51.500Z,14.44
2023-05-23T04:48:21.672Z,14.51
2023-05-23T04:50:49.007Z,14.58
2023-05-23T04:53:15.723Z,14.67
2023-05-23T04:55:42.808Z,14.76
2023-05-23T04:58:10.360Z,14.80
2023-05-23T05:00:37.483Z,14.86
2023-05-23T05:03:04.500Z,14.92
2023-05-23T05:05:31.194Z,14.98
2023-05-23T05:07:57.898Z,15.05
2023-05-23T05:10:24.561Z,15.12
2023-05-23T05:12:51.292Z,15.24
2023-05-23T05:15:18.548Z,15.35
2023-05-23T05:17:47.508Z,15.44
2023-05-23T05:20:16.361Z,15.53
2023-05-23T05:22:43.770Z,15.61
2023-05-23T05:25:11.344Z,15.68
2023-05-23T05:27:40.489Z,15.74
2023-05-23T05:30:09.269Z,15.78
2023-05-23T05:32:36.038Z,15.85
2023-05-23T05:35:03.708Z,15.92
2023-05-23T05:37:30.718Z,16.01
2023-05-23T05:39:57.476Z,16.11
2023-05-23T05:42:24.140Z,16.21
2023-05-23T05:44:51.058Z,16.29
2023-05-23T05:47:17.784Z,16.36
2023-05-23T05:49:44.510Z,16.43
2023-05-23T05:52:11.181Z,16.46
2023-05-23T05:54:37.892Z,16.52
2023-05-23T05:57:05.013Z,16.55
2023-05-23T05:59:32.595Z,16.59
2023-05-23T06:01:59.631Z,16.65
2023-05-23T06:04:26.456Z,16.70
2023-05-23T06:06:53.210Z,16.75
2023-05-23T06:09:19.975Z,16.79
2023-05-23T06:11:46.989Z,16.87
2023-05-23T06:14:13.738Z,16.95
2023-05-23T06:16:41.153Z,17.02
2023-05-23T06:19:08.630Z,17.10
2023-05-23T06:21:36.307Z,17.17
2023-05-23T06:24:03.168Z,17.25
2023-05-23T06:26:29.834Z,17.36
2023-05-23T06:28:56.704Z,17.47
2023-05-23T06:31:23.536Z,17.63
2023-05-23T06:33:51.196Z,17.78
2023-05-23T06:36:17.864Z,17.96
2023-05-23T06:38:44.851Z,18.13
2023-05-23T06:41:11.637Z,18.28
2023-05-23T06:43:38.383Z,18.40
2023-05-23T06:46:05.342Z,18.50
2023-05-23T06:48:32.108Z,18.58
2023-05-23T06:50:58.917Z,18.68
2023-05-23T06:53:25.726Z,18.78
2023-05-23T06:55:52.470Z,18.87
2023-05-23T06:58:19.218Z,18.96
2023-05-23T07:00:45.894Z,19.03
2023-05-23T07:03:12.677Z,19.11
2023-05-23T07:05:41.241Z,19.15
2023-05-23T07:08:08.537Z,19.21
2023-05-23T07:10:35.589Z,19.25
2023-05-23T07:13:02.443Z,19.29
2023-05-23T07:15:29.180Z,19.34
2023-05-23T07:17:56.067Z,19.38
2023-05-23T07:20:22.932Z,19.46
2023-05-23T07:22:51.619Z,19.55
2023-05-23T07:25:18.989Z,19.63
2023-05-23T07:27:45.694Z,19.70
2023-05-23T07:30:12.490Z,19.74
2023-05-23T07:32:39.331Z,19.74
2023-05-23T07:35:06.658Z,19.75
2023-05-23T07:37:33.326Z,19.80
2023-05-23T07:40:01.328Z,19.87
2023-05-23T07:42:28.043Z,19.95
2023-05-23T07:44:54.698Z,20.03
2023-05-23T07:47:21.781Z,20.10
2023-05-23T07:49:48.551Z,20.19
2023-05-23T07:52:15.517Z,20.25
2023-05-23T07:54:42.757Z,20.31
2023-05-23T07:57:09.976Z,20.34
2023-05-23T07:59:37.055Z,20.40
2023-05-23T08:02:03.866Z,20.46
2023-05-23T08:04:32.377Z,20.50
2023-05-23T08:07:05.692Z,20.57
2023-05-23T08:09:32.885Z,20.64
2023-05-23T08:11:59.689Z,20.70
2023-05-23T08:14:34.888Z,20.76
2023-05-23T08:17:09.389Z,20.83
2023-05-23T08:19:36.300Z,20.91
2023-05-23T08:22:04.825Z,20.94
2023-05-23T08:24:31.924Z,20.98
2023-05-23T08:26:58.645Z,21.04
2023-05-23T08:29:25.292Z,21.09
2023-05-23T08:31:52.078Z,21.14
2023-05-23T08:34:18.873Z,21.17
2023-05-23T08:36:45.610Z,21.23
2023-05-23T08:39:14.112Z,21.28
2023-05-23T08:41:41.118Z,21.32
2023-05-23T08:44:07.850Z,21.36
2023-05-23T08:46:41.266Z,21.40
2023-05-23T08:49:09.073Z,21.45
2023-05-23T08:51:37.888Z,21.51
2023-05-23T08:54:06.336Z,21.56
2023-05-23T08:56:33.183Z,21.60
2023-05-23T08:58:59.952Z,21.62
2023-05-23T09:01:27.959Z,21.67
2023-05-23T09:03:55.155Z,21.71
2023-05-23T09:06:22.202Z,21.75
2023-05-23T09:08:49.381Z,21.83
2023-05-23T09:11:16.186Z,21.90
2023-05-23T09:13:42.931Z,21.95
2023-05-23T09:16:11.470Z,22.01
2023-05-23T09:18:40.315Z,22.04
2023-05-23T09:21:09.025Z,22.06
2023-05-23T09:23:37.034Z,22.15
2023-05-23T09:26:05.320Z,22.20
2023-05-23T09:28:34.086Z,22.24
2023-05-23T09:31:02.015Z,22.29
2023-05-23T09:33:48.299Z,22.36
2023-05-23T09:36:15.872Z,22.45
2023-05-23T09:38:44.854Z,22.51
2023-05-23T09:41:14.345Z,22.52
2023-05-23T09:43:53.517Z,22.54
2023-05-23T09:46:21.618Z,22.60
2023-05-23T09:48:52.169Z,22.67
2023-05-23T09:51:24.053Z,22.76
2023-05-23T09:53:51.094Z,22.85
2023-05-23T09:56:18.282Z,22.89
2023-05-23T09:58:48.350Z,22.97
2023-05-23T10:01:16.015Z,23.00
2023-05-23T10:03:51.063Z,23.00
2023-05-23T10:06:27.553Z,23.04
2023-05-23T10:09:06.059Z,23.11
2023-05-23T10:11:35.526Z,23.21
2023-05-23T10:14:09.285Z,23.30
2023-05-23T10:16:59.410Z,23.41
2023-05-23T10:19:29.779Z,23.48
2023-05-23T10:22:03.689Z,23.59
2023-05-23T10:24:30.993Z,23.71
2023-05-23T10:26:58.454Z,23.82
2023-05-23T10:29:26.043Z,23.94
2023-05-23T10:31:53.765Z,24.05
2023-05-23T10:34:36.509Z,24.18
2023-05-23T10:37:06.322Z,24.25
2023-05-23T10:39:49.075Z,24.25
2023-05-23T10:42:45.469Z,24.34
2023-05-23T10:45:30.220Z,24.42
2023-05-23T10:47:57.047Z,24.51
2023-05-23T10:50:34.492Z,24.58
2023-05-23T10:53:03.248Z,24.61
2023-05-23T10:55:35.261Z,24.64
2023-05-23T10:58:21.500Z,24.73
2023-05-23T11:01:02.198Z,24.83
2023-05-23T11:03:47.448Z,24.87
2023-05-23T11:06:38.703Z,24.97
2023-05-23T11:09:19.636Z,25.11
2023-05-23T11:11:49.167Z,25.24
2023-05-23T11:14:16.038Z,25.32
2023-05-23T11:16:45.553Z,25.38
2023-05-23T11:19:23.138Z,25.39
2023-05-23T11:21:53.236Z,25.25
2023-05-23T11:24:20.176Z,25.15
2023-05-23T11:27:00.998Z,25.16
2023-05-23T11:29:29.115Z,25.24
2023-05-23T11:31:57.152Z,25.32
2023-05-23T11:34:26.634Z,25.37
2023-05-23T11:36:55.857Z,25.38
2023-05-23T11:39:23.348Z,25.32
2023-05-23T11:42:01.058Z,25.26
2023-05-23T11:44:27.977Z,25.27
2023-05-23T11:47:05.086Z,25.41
2023-05-23T11:49:34.146Z,25.50
2023-05-23T11:52:02.453Z,25.58
2023-05-23T11:54:29.284Z,25.65
2023-05-23T11:56:56.835Z,25.79
2023-05-23T11:59:26.152Z,25.89
2023-05-23T12:01:53.579Z,25.95
2023-05-23T12:04:20.488Z,25.95
2023-05-23T12:06:48.679Z,25.93
2023-05-23T12:09:15.877Z,25.98
2023-05-23T12:11:44.326Z,26.03
2023-05-23T12:14:16.109Z,26.03
2023-05-23T12:16:48.479Z,25.94
2023-05-23T12:19:17.414Z,25.93
2023-05-23T12:21:48.843Z,26.03
2023-05-23T12:24:20.724Z,26.16
2023-05-23T12:26:57.763Z,26.38
2023-05-23T12:29:35.679Z,26.61
2023-05-23T12:32:05.477Z,26.73
2023-05-23T12:34:32.252Z,26.76
2023-05-23T12:37:18.060Z,26.90
2023-05-23T12:39:46.778Z,27.08
2023-05-23T12:42:13.578Z,27.40
2023-05-23T12:44:43.702Z,27.73
2023-05-23T12:47:13.432Z,27.93
2023-05-23T12:49:40.152Z,28.07
2023-05-23T12:52:07.400Z,28.22
2023-05-23T12:54:34.123Z,28.27
2023-05-23T12:57:01.025Z,28.25
2023-05-23T12:59:27.714Z,28.24
2023-05-23T13:01:55.102Z,28.11
2023-05-23T13:04:21.953Z,28.06
2023-05-23T13:06:48.702Z,28.01
2023-05-23T13:09:15.422Z,27.77
2023-05-23T13:11:42.206Z,27.46
2023-05-23T13:14:08.904Z,27.38
2023-05-23T13:16:36.472Z,27.37
2023-05-23T13:19:03.284Z,27.36
2023-05-23T13:21:30.066Z,27.30
2023-05-23T13:23:56.723Z,27.22
2023-05-23T13:26:23.393Z,27.23
2023-05-23T13:28:50.193Z,27.46
2023-05-23T13:31:16.948Z,27.69
2023-05-23T13:33:43.645Z,27.85
2023-05-23T13:36:10.493Z,27.82
2023-05-23T13:38:37.714Z,27.73
2023-05-23T13:41:04.511Z,27.85
2023-05-23T13:43:31.318Z,28.05
2023-05-23T13:45:58.101Z,28.23
2023-05-23T13:48:24.828Z,28.28
2023-05-23T13:50:51.526Z,28.21
2023-05-23T13:53:18.261Z,28.08
2023-05-23T13:55:45.526Z,27.95
2023-05-23T13:58:12.755Z,27.92
2023-05-23T14:00:40.100Z,27.84
2023-05-23T14:03:08.904Z,27.80
2023-05-23T14:05:36.624Z,27.56
2023-05-23T14:08:04.640Z,27.41
2023-05-23T14:10:33.348Z,27.46
2023-05-23T14:13:00.226Z,27.58
2023-05-23T14:15:27.213Z,27.76
2023-05-23T14:17:55.936Z,27.90
2023-05-23T14:20:23.739Z,27.88
2023-05-23T14:22:51.630Z,27.70
2023-05-23T14:25:18.831Z,27.52
2023-05-23T14:27:45.544Z,27.30
2023-05-23T14:30:12.664Z,27.22
2023-05-23T14:32:39.709Z,27.34
2023-05-23T14:35:07.845Z,27.47
2023-05-23T14:37:34.552Z,27.55
2023-05-23T14:40:01.956Z,27.76
2023-05-23T14:42:28.644Z,27.95
2023-05-23T14:44:55.349Z,27.99
2023-05-23T14:47:22.090Z,27.85
2023-05-23T14:49:48.928Z,27.59
2023-05-23T14:52:16.592Z,27.36
2023-05-23T14:54:46.339Z,27.08
2023-05-23T14:57:13.113Z,26.73
2023-05-23T14:59:39.892Z,26.63
2023-05-23T15:02:09.362Z,26.69
2023-05-23T15:04:37.893Z,26.76
2023-05-23T15:07:04.901Z,26.72
2023-05-23T15:09:31.580Z,26.70
2023-05-23T15:11:58.464Z,26.77
2023-05-23T15:14:29.463Z,27.02
2023-05-23T15:16:56.726Z,27.24
2023-05-23T15:19:23.725Z,27.44
2023-05-23T15:21:51.752Z,27.64
2023-05-23T15:24:19.098Z,27.80
2023-05-23T15:26:45.870Z,27.86
2023-05-23T15:29:14.609Z,27.79
2023-05-23T15:31:41.577Z,27.70
2023-05-23T15:34:08.440Z,27.55
2023-05-23T15:36:35.265Z,27.38
2023-05-23T15:39:02.152Z,27.23
2023-05-23T15:41:28.818Z,26.96
2023-05-23T15:43:55.657Z,26.71
2023-05-23T15:46:22.349Z,26.52
2023-05-23T15:48:49.104Z,26.32
2023-05-23T15:51:16.515Z,26.21
2023-05-23T15:54:00.120Z,26.21
2023-05-23T15:56:28.083Z,26.28
2023-05-23T15:58:55.660Z,26.33
2023-05-23T16:01:22.514Z,26.20
2023-05-23T16:03:49.905Z,25.94
2023-05-23T16:06:16.715Z,25.96
2023-05-23T16:08:43.425Z,25.82
2023-05-23T16:11:10.185Z,25.47
2023-05-23T16:13:36.934Z,25.15
2023-05-23T16:16:04.587Z,24.94
2023-05-23T16:18:31.553Z,24.76
2023-05-23T16:20:58.410Z,24.66
2023-05-23T16:23:25.154Z,24.48
2023-05-23T16:25:51.948Z,24.34
2023-05-23T16:28:20.477Z,24.25
2023-05-23T16:30:47.163Z,24.16
2023-05-23T16:33:14.274Z,24.12
2023-05-23T16:35:41.374Z,24.06
2023-05-23T16:38:08.241Z,24.05
2023-05-23T16:40:35.005Z,23.99
2023-05-23T16:43:02.502Z,23.95
2023-05-23T16:45:29.199Z,23.99
2023-05-23T16:47:56.030Z,24.17
2023-05-23T16:50:22.702Z,24.25
2023-05-23T16:52:49.438Z,24.19
2023-05-23T16:55:16.162Z,24.19
2023-05-23T16:57:42.866Z,24.16
2023-05-23T17:00:10.720Z,24.05
2023-05-23T17:02:37.566Z,24.00
2023-05-23T17:05:04.573Z,24.03
2023-05-23T17:07:31.311Z,23.99
2023-05-23T17:09:58.197Z,23.88
2023-05-23T17:12:26.379Z,23.80
2023-05-23T17:14:53.103Z,23.75
2023-05-23T17:17:19.791Z,23.71
2023-05-23T17:19:46.521Z,23.58
2023-05-23T17:22:13.351Z,23.36
2023-05-23T17:24:40.078Z,23.28
2023-05-23T17:27:06.850Z,23.33
2023-05-23T17:29:33.575Z,23.39
2023-05-23T17:32:00.529Z,23.38
2023-05-23T17:34:27.246Z,23.36
2023-05-23T17:36:54.002Z,23.32
2023-05-23T17:39:20.665Z,23.28
2023-05-23T17:41:47.352Z,23.32
2023-05-23T17:44:14.073Z,23.33
2023-05-23T17:46:40.977Z,23.47
2023-05-23T17:49:07.696Z,23.60
2023-05-23T17:51:34.370Z,23.72
2023-05-23T17:54:01.177Z,23.76
2023-05-23T17:56:27.827Z,23.71
2023-05-23T17:58:55.539Z,23.66
2023-05-23T18:01:22.649Z,23.59
2023-05-23T18:03:49.566Z,23.51
2023-05-23T18:06:16.252Z,23.41
2023-05-23T18:08:43.381Z,23.29
2023-05-23T18:11:10.232Z,23.15
2023-05-23T18:13:36.934Z,23.08
2023-05-23T18:16:03.619Z,22.97
2023-05-23T18:18:30.410Z,22.88
2023-05-23T18:20:57.138Z,22.77
2023-05-23T18:23:23.956Z,22.61
2023-05-23T18:25:50.719Z,22.47
2023-05-23T18:28:17.391Z,22.33
2023-05-23T18:30:44.838Z,22.17
2023-05-23T18:33:11.889Z,21.99
2023-05-23T18:35:38.612Z,21.90
2023-05-23T18:38:05.390Z,21.82
2023-05-23T18:40:32.098Z,21.73
2023-05-23T18:42:58.807Z,21.67
2023-05-23T18:45:25.480Z,21.63
2023-05-23T18:47:52.228Z,21.55
2023-05-23T18:50:18.960Z,21.41
2023-05-23T18:52:46.908Z,21.29
2023-05-23T18:55:13.701Z,21.20
2023-05-23T18:57:40.555Z,21.12
2023-05-23T19:00:09.111Z,21.04
2023-05-23T19:02:35.952Z,20.96
2023-05-23T19:05:02.966Z,20.83
2023-05-23T19:07:29.663Z,20.72
2023-05-23T19:09:56.625Z,20.64
2023-05-23T19:12:23.341Z,20.61
2023-05-23T19:14:49.985Z,20.59
2023-05-23T19:17:16.760Z,20.57
2023-05-23T19:19:43.621Z,20.50
2023-05-23T19:22:10.914Z,20.41
2023-05-23T19:24:37.739Z,20.34
2023-05-23T19:27:04.997Z,20.27
2023-05-23T19:29:31.727Z,20.20
2023-05-23T19:31:58.521Z,20.08
2023-05-23T19:34:25.407Z,19.92
2023-05-23T19:36:52.192Z,19.73
2023-05-23T19:39:19.222Z,19.61
2023-05-23T19:41:45.920Z,19.60
2023-05-23T19:44:13.286Z,19.55
2023-05-23T19:46:40.047Z,19.48
2023-05-23T19:49:08.137Z,19.37
2023-05-23T19:51:35.030Z,19.26
2023-05-23T19:54:01.977Z,19.15
2023-05-23T19:56:28.878Z,19.10
2023-05-23T19:58:57.969Z,19.06
2023-05-23T20:01:24.927Z,19.03
2023-05-23T20:03:52.439Z,19.02
2023-05-23T20:06:20.574Z,18.97
2023-05-23T20:08:47.508Z,18.92
2023-05-23T20:11:14.221Z,18.87
2023-05-23T20:13:40.939Z,18.81
2023-05-23T20:16:08.382Z,18.77
2023-05-23T20:18:35.128Z,18.72
2023-05-23T20:21:04.289Z,18.64
2023-05-23T20:23:31.828Z,18.55
2023-05-23T20:25:58.536Z,18.46
2023-05-23T20:28:25.371Z,18.37
2023-05-23T20:30:52.065Z,18.27
2023-05-23T20:33:19.217Z,18.14
2023-05-23T20:35:48.418Z,18.02
2023-05-23T20:38:18.565Z,17.89
2023-05-23T20:40:46.353Z,17.81
2023-05-23T20:43:15.127Z,17.70
2023-05-23T20:45:42.108Z,17.64
2023-05-23T20:48:09.238Z,17.60
2023-05-23T20:50:36.695Z,17.55
2023-05-23T20:53:03.708Z,17.44
2023-05-23T20:55:30.456Z,17.36
2023-05-23T20:57:57.183Z,17.27
2023-05-23T21:00:24.308Z,17.23
2023-05-23T21:02:51.156Z,17.18
2023-05-23T21:05:17.943Z,17.11
2023-05-23T21:07:44.750Z,17.03
2023-05-23T21:10:11.508Z,16.88
2023-05-23T21:12:38.325Z,16.76
2023-05-23T21:15:05.425Z,16.71
2023-05-23T21:17:32.128Z,16.68
2023-05-23T21:19:58.842Z,16.63
2023-05-23T21:22:25.569Z,16.63
2023-05-23T21:24:52.264Z,16.61
2023-05-23T21:27:18.942Z,16.57
2023-05-23T21:29:46.996Z,16.55
2023-05-23T21:32:13.943Z,16.52
2023-05-23T21:34:40.828Z,16.46
2023-05-23T21:37:07.748Z,16.42
2023-05-23T21:39:46.952Z,16.40
2023-05-23T21:42:17.520Z,16.32
2023-05-23T21:44:44.314Z,16.18
2023-05-23T21:47:10.992Z,16.00
2023-05-23T21:49:38.079Z,15.89
2023-05-23T21:52:05.385Z,15.88
2023-05-23T21:54:32.140Z,15.88
2023-05-23T21:56:58.850Z,15.83
2023-05-23T21:59:25.568Z,15.78
2023-05-23T22:01:52.337Z,15.76
2023-05-23T22:04:20.206Z,15.76
2023-05-23T22:06:47.106Z,15.75
2023-05-23T22:09:15.429Z,15.74
2023-05-23T22:11:42.477Z,15.72
2023-05-23T22:14:10.108Z,15.64
2023-05-23T22:16:39.906Z,15.52
2023-05-23T22:19:09.161Z,15.39
2023-05-23T22:21:39.597Z,15.26
2023-05-23T22:24:06.496Z,15.18
2023-05-23T22:26:33.158Z,15.12
2023-05-23T22:28:59.896Z,15.08
2023-05-23T22:31:29.026Z,15.05
2023-05-23T22:33:56.155Z,15.01
2023-05-23T22:36:23.425Z,14.97
2023-05-23T22:38:50.354Z,14.86
2023-05-23T22:41:17.224Z,14.79
2023-05-23T22:43:44.319Z,14.74
2023-05-23T22:46:11.243Z,14.75
2023-05-23T22:48:38.062Z,14.71
2023-05-23T22:51:06.245Z,14.66
2023-05-23T22:53:32.971Z,14.60
2023-05-23T22:55:59.717Z,14.53
2023-05-23T22:58:26.763Z,14.52
2023-05-23T23:00:53.476Z,14.52
2023-05-23T23:03:20.256Z,14.52
2023-05-23T23:05:47.014Z,14.54
2023-05-23T23:08:13.775Z,14.53
2023-05-23T23:10:41.959Z,14.46
2023-05-23T23:13:08.967Z,14.36
2023-05-23T23:15:36.970Z,14.31
2023-05-23T23:18:05.899Z,14.24
2023-05-23T23:20:33.232Z,14.18
2023-05-23T23:23:00.427Z,14.16
2023-05-23T23:25:27.139Z,14.13
2023-05-23T23:27:53.788Z,14.08
2023-05-23T23:30:20.744Z,14.06
2023-05-23T23:32:47.474Z,14.02
2023-05-23T23:35:14.403Z,14.02
2023-05-23T23:37:41.120Z,14.02
2023-05-23T23:40:08.944Z,14.01
2023-05-23T23:42:35.779Z,14.00
2023-05-23T23:45:02.793Z,13.90
2023-05-23T23:47:29.543Z,13.81
2023-05-23T23:49:56.279Z,13.78
2023-05-23T23:52:22.934Z,13.77
2023-05-23T23:54:49.629Z,13.69
2023-05-23T23:57:16.571Z,13.59
2023-05-23T23:59:43.862Z,13.55
